sensor_id;sensor_type;location;lat;lon;timestamp;temperature;humidity
71128;SHT30;59249;59.736;30.568;2023-09-19T00:00:58;8.04;89.33
71128;SHT30;59249;59.736;30.568;2023-09-19T00:03:27;7.89;89.36
71128;SHT30;59249;59.736;30.568;2023-09-19T00:05:58;7.95;89.35
71128;SHT30;59249;59.736;30.568;2023-09-19T00:08:27;7.90;89.35
71128;SHT30;59249;59.736;30.568;2023-09-19T00:10:57;7.92;89.52
71128;SHT30;59249;59.736;30.568;2023-09-19T00:13:32;7.87;89.25
71128;SHT30;59249;59.736;30.568;2023-09-19T00:16:01;7.82;89.33
71128;SHT30;59249;59.736;30.568;2023-09-19T00:18:31;7.71;89.25
71128;SHT30;59249;59.736;30.568;2023-09-19T00:21:02;7.75;89.66
71128;SHT30;59249;59.736;30.568;2023-09-19T00:23:32;7.74;89.47
71128;SHT30;59249;59.736;30.568;2023-09-19T00:26:02;7.73;89.66
71128;SHT30;59249;59.736;30.568;2023-09-19T00:28:31;7.63;89.62
71128;SHT30;59249;59.736;30.568;2023-09-19T00:31:00;7.72;89.46
71128;SHT30;59249;59.736;30.568;2023-09-19T00:33:31;7.68;89.43
71128;SHT30;59249;59.736;30.568;2023-09-19T00:36:01;7.66;89.45
71128;SHT30;59249;59.736;30.568;2023-09-19T00:38:33;7.63;89.31
71128;SHT30;59249;59.736;30.568;2023-09-19T00:41:03;7.57;89.52
71128;SHT30;59249;59.736;30.568;2023-09-19T00:43:32;7.55;89.45
71128;SHT30;59249;59.736;30.568;2023-09-19T00:46:02;7.54;89.37
71128;SHT30;59249;59.736;30.568;2023-09-19T00:48:40;7.54;89.29
71128;SHT30;59249;59.736;30.568;2023-09-19T00:51:11;7.54;89.54
71128;SHT30;59249;59.736;30.568;2023-09-19T00:53:43;7.47;89.53
71128;SHT30;59249;59.736;30.568;2023-09-19T00:56:15;7.50;89.58
71128;SHT30;59249;59.736;30.568;2023-09-19T00:58:48;7.51;89.76
71128;SHT30;59249;59.736;30.568;2023-09-19T01:01:17;7.52;90.62
71128;SHT30;59249;59.736;30.568;2023-09-19T01:03:46;7.48;90.42
71128;SHT30;59249;59.736;30.568;2023-09-19T01:06:16;7.54;90.67
71128;SHT30;59249;59.736;30.568;2023-09-19T01:08:45;7.54;91.07
71128;SHT30;59249;59.736;30.568;2023-09-19T01:11:25;7.59;91.25
71128;SHT30;59249;59.736;30.568;2023-09-19T01:14:04;7.61;91.30
71128;SHT30;59249;59.736;30.568;2023-09-19T01:16:44;7.59;91.16
71128;SHT30;59249;59.736;30.568;2023-09-19T01:19:48;7.58;91.13
71128;SHT30;59249;59.736;30.568;2023-09-19T01:22:30;7.66;91.41
71128;SHT30;59249;59.736;30.568;2023-09-19T01:25:40;7.70;91.43
71128;SHT30;59249;59.736;30.568;2023-09-19T01:28:30;7.79;91.45
71128;SHT30;59249;59.736;30.568;2023-09-19T01:31:10;7.87;91.36
71128;SHT30;59249;59.736;30.568;2023-09-19T01:34:00;7.90;91.32
71128;SHT30;59249;59.736;30.568;2023-09-19T01:36:35;7.96;91.19
71128;SHT30;59249;59.736;30.568;2023-09-19T01:39:10;8.07;91.03
71128;SHT30;59249;59.736;30.568;2023-09-19T01:42:01;8.12;91.10
71128;SHT30;59249;59.736;30.568;2023-09-19T01:44:51;8.11;90.78
71128;SHT30;59249;59.736;30.568;2023-09-19T01:47:32;8.19;90.62
71128;SHT30;59249;59.736;30.568;2023-09-19T01:50:13;8.16;90.02
71128;SHT30;59249;59.736;30.568;2023-09-19T01:52:54;8.13;90.41
71128;SHT30;59249;59.736;30.568;2023-09-19T01:55:29;8.15;90.35
71128;SHT30;59249;59.736;30.568;2023-09-19T01:58:08;8.08;90.39
71128;SHT30;59249;59.736;30.568;2023-09-19T02:00:40;8.08;90.54
71128;SHT30;59249;59.736;30.568;2023-09-19T02:03:12;8.05;90.69
71128;SHT30;59249;59.736;30.568;2023-09-19T02:05:49;8.01;90.63
71128;SHT30;59249;59.736;30.568;2023-09-19T02:08:20;7.99;90.67
71128;SHT30;59249;59.736;30.568;2023-09-19T02:10:52;8.06;90.87
71128;SHT30;59249;59.736;30.568;2023-09-19T02:13:23;8.03;91.07
71128;SHT30;59249;59.736;30.568;2023-09-19T02:15:55;8.07;91.09
71128;SHT30;59249;59.736;30.568;2023-09-19T02:18:28;8.17;90.97
71128;SHT30;59249;59.736;30.568;2023-09-19T02:20:57;8.18;91.02
71128;SHT30;59249;59.736;30.568;2023-09-19T02:23:27;8.21;90.55
71128;SHT30;59249;59.736;30.568;2023-09-19T02:25:57;8.34;90.53
71128;SHT30;59249;59.736;30.568;2023-09-19T02:28:27;8.44;90.43
71128;SHT30;59249;59.736;30.568;2023-09-19T02:30:59;8.42;90.07
71128;SHT30;59249;59.736;30.568;2023-09-19T02:33:30;8.56;89.86
71128;SHT30;59249;59.736;30.568;2023-09-19T02:36:00;8.49;89.71
71128;SHT30;59249;59.736;30.568;2023-09-19T02:38:31;8.54;89.44
71128;SHT30;59249;59.736;30.568;2023-09-19T02:41:00;8.50;89.38
71128;SHT30;59249;59.736;30.568;2023-09-19T02:43:29;8.46;89.33
71128;SHT30;59249;59.736;30.568;2023-09-19T02:45:58;8.47;89.27
71128;SHT30;59249;59.736;30.568;2023-09-19T02:48:27;8.48;89.12
71128;SHT30;59249;59.736;30.568;2023-09-19T02:51:00;8.45;89.18
71128;SHT30;59249;59.736;30.568;2023-09-19T02:53:31;8.45;89.17
71128;SHT30;59249;59.736;30.568;2023-09-19T02:56:00;8.49;89.22
71128;SHT30;59249;59.736;30.568;2023-09-19T02:58:28;8.54;89.20
71128;SHT30;59249;59.736;30.568;2023-09-19T03:00:58;8.54;89.34
71128;SHT30;59249;59.736;30.568;2023-09-19T03:03:27;8.65;89.13
71128;SHT30;59249;59.736;30.568;2023-09-19T03:05:58;8.65;89.05
71128;SHT30;59249;59.736;30.568;2023-09-19T03:08:27;8.66;89.01
71128;SHT30;59249;59.736;30.568;2023-09-19T03:10:55;8.65;88.85
71128;SHT30;59249;59.736;30.568;2023-09-19T03:13:24;8.67;88.80
71128;SHT30;59249;59.736;30.568;2023-09-19T03:15:54;8.68;88.71
71128;SHT30;59249;59.736;30.568;2023-09-19T03:18:27;8.71;88.74
71128;SHT30;59249;59.736;30.568;2023-09-19T03:20:58;8.73;88.59
71128;SHT30;59249;59.736;30.568;2023-09-19T03:23:29;8.78;88.50
71128;SHT30;59249;59.736;30.568;2023-09-19T03:26:01;8.80;88.56
71128;SHT30;59249;59.736;30.568;2023-09-19T03:28:32;8.79;88.42
71128;SHT30;59249;59.736;30.568;2023-09-19T03:31:04;8.78;88.31
71128;SHT30;59249;59.736;30.568;2023-09-19T03:33:35;8.84;88.26
71128;SHT30;59249;59.736;30.568;2023-09-19T03:36:06;8.87;88.24
71128;SHT30;59249;59.736;30.568;2023-09-19T03:38:36;8.93;88.20
71128;SHT30;59249;59.736;30.568;2023-09-19T03:41:06;8.99;88.18
71128;SHT30;59249;59.736;30.568;2023-09-19T03:43:36;9.01;87.98
71128;SHT30;59249;59.736;30.568;2023-09-19T03:46:06;9.04;87.80
71128;SHT30;59249;59.736;30.568;2023-09-19T03:48:39;9.05;87.67
71128;SHT30;59249;59.736;30.568;2023-09-19T03:51:09;9.03;87.55
71128;SHT30;59249;59.736;30.568;2023-09-19T03:53:38;9.07;87.54
71128;SHT30;59249;59.736;30.568;2023-09-19T03:56:09;9.08;87.53
71128;SHT30;59249;59.736;30.568;2023-09-19T03:58:38;9.08;87.64
71128;SHT30;59249;59.736;30.568;2023-09-19T04:01:07;9.14;87.61
71128;SHT30;59249;59.736;30.568;2023-09-19T04:03:37;9.25;87.60
71128;SHT30;59249;59.736;30.568;2023-09-19T04:06:21;9.25;87.50
71128;SHT30;59249;59.736;30.568;2023-09-19T04:08:49;9.38;87.44
71128;SHT30;59249;59.736;30.568;2023-09-19T04:11:19;9.37;87.29
71128;SHT30;59249;59.736;30.568;2023-09-19T04:13:48;9.35;86.85
71128;SHT30;59249;59.736;30.568;2023-09-19T04:16:17;9.38;86.93
71128;SHT30;59249;59.736;30.568;2023-09-19T04:18:48;9.49;86.83
71128;SHT30;59249;59.736;30.568;2023-09-19T04:21:23;9.50;86.60
71128;SHT30;59249;59.736;30.568;2023-09-19T04:23:51;9.57;86.13
71128;SHT30;59249;59.736;30.568;2023-09-19T04:26:22;9.59;85.93
71128;SHT30;59249;59.736;30.568;2023-09-19T04:28:55;9.52;86.08
71128;SHT30;59249;59.736;30.568;2023-09-19T04:31:26;9.45;86.16
71128;SHT30;59249;59.736;30.568;2023-09-19T04:33:55;9.47;86.16
71128;SHT30;59249;59.736;30.568;2023-09-19T04:36:28;9.45;86.37
71128;SHT30;59249;59.736;30.568;2023-09-19T04:39:03;9.46;86.31
71128;SHT30;59249;59.736;30.568;2023-09-19T04:41:35;9.46;86.39
71128;SHT30;59249;59.736;30.568;2023-09-19T04:44:09;9.51;86.24
71128;SHT30;59249;59.736;30.568;2023-09-19T04:46:43;9.50;86.07
71128;SHT30;59249;59.736;30.568;2023-09-19T04:49:13;9.52;86.27
71128;SHT30;59249;59.736;30.568;2023-09-19T04:51:48;9.52;86.07
71128;SHT30;59249;59.736;30.568;2023-09-19T04:54:17;9.66;86.05
71128;SHT30;59249;59.736;30.568;2023-09-19T04:56:47;9.76;85.77
71128;SHT30;59249;59.736;30.568;2023-09-19T04:59:22;9.88;85.80
71128;SHT30;59249;59.736;30.568;2023-09-19T05:01:52;9.89;85.59
71128;SHT30;59249;59.736;30.568;2023-09-19T05:04:21;9.96;85.44
71128;SHT30;59249;59.736;30.568;2023-09-19T05:07:08;10.11;85.25
71128;SHT30;59249;59.736;30.568;2023-09-19T05:09:48;10.15;85.18
71128;SHT30;59249;59.736;30.568;2023-09-19T05:12:17;10.22;84.90
71128;SHT30;59249;59.736;30.568;2023-09-19T05:14:48;10.26;84.94
71128;SHT30;59249;59.736;30.568;2023-09-19T05:17:19;10.18;84.95
71128;SHT30;59249;59.736;30.568;2023-09-19T05:19:49;10.29;85.00
71128;SHT30;59249;59.736;30.568;2023-09-19T05:22:19;10.34;84.89
71128;SHT30;59249;59.736;30.568;2023-09-19T05:24:51;10.39;84.84
71128;SHT30;59249;59.736;30.568;2023-09-19T05:27:24;10.41;84.87
71128;SHT30;59249;59.736;30.568;2023-09-19T05:29:54;10.42;84.60
71128;SHT30;59249;59.736;30.568;2023-09-19T05:32:23;10.41;84.59
71128;SHT30;59249;59.736;30.568;2023-09-19T05:34:53;10.32;84.81
71128;SHT30;59249;59.736;30.568;2023-09-19T05:37:25;10.28;84.78
71128;SHT30;59249;59.736;30.568;2023-09-19T05:39:54;10.33;85.06
71128;SHT30;59249;59.736;30.568;2023-09-19T05:42:24;10.36;85.07
71128;SHT30;59249;59.736;30.568;2023-09-19T05:44:59;10.41;85.17
71128;SHT30;59249;59.736;30.568;2023-09-19T05:47:33;10.49;85.01
71128;SHT30;59249;59.736;30.568;2023-09-19T05:50:04;10.45;85.20
71128;SHT30;59249;59.736;30.568;2023-09-19T05:52:38;10.57;85.24
71128;SHT30;59249;59.736;30.568;2023-09-19T05:55:15;10.64;85.28
71128;SHT30;59249;59.736;30.568;2023-09-19T05:57:50;10.65;85.21
71128;SHT30;59249;59.736;30.568;2023-09-19T06:00:22;10.76;85.18
71128;SHT30;59249;59.736;30.568;2023-09-19T06:02:51;10.90;85.20
71128;SHT30;59249;59.736;30.568;2023-09-19T06:05:23;11.09;84.79
71128;SHT30;59249;59.736;30.568;2023-09-19T06:07:57;11.22;84.66
71128;SHT30;59249;59.736;30.568;2023-09-19T06:10:30;11.39;84.45
71128;SHT30;59249;59.736;30.568;2023-09-19T06:13:31;11.56;84.44
71128;SHT30;59249;59.736;30.568;2023-09-19T06:16:04;11.78;84.45
71128;SHT30;59249;59.736;30.568;2023-09-19T06:18:37;11.85;84.17
71128;SHT30;59249;59.736;30.568;2023-09-19T06:21:14;11.97;84.01
71128;SHT30;59249;59.736;30.568;2023-09-19T06:23:53;11.96;83.77
71128;SHT30;59249;59.736;30.568;2023-09-19T06:26:25;12.04;83.75
71128;SHT30;59249;59.736;30.568;2023-09-19T06:28:58;12.07;83.92
71128;SHT30;59249;59.736;30.568;2023-09-19T06:31:28;12.20;84.11
71128;SHT30;59249;59.736;30.568;2023-09-19T06:33:59;12.22;84.14
71128;SHT30;59249;59.736;30.568;2023-09-19T06:36:29;12.30;83.74
71128;SHT30;59249;59.736;30.568;2023-09-19T06:39:07;12.41;83.79
71128;SHT30;59249;59.736;30.568;2023-09-19T06:41:38;12.54;83.69
71128;SHT30;59249;59.736;30.568;2023-09-19T06:44:16;12.60;83.68
71128;SHT30;59249;59.736;30.568;2023-09-19T06:46:48;12.70;83.91
71128;SHT30;59249;59.736;30.568;2023-09-19T06:49:24;12.80;83.95
71128;SHT30;59249;59.736;30.568;2023-09-19T06:51:56;12.89;83.98
71128;SHT30;59249;59.736;30.568;2023-09-19T06:54:27;13.00;83.78
71128;SHT30;59249;59.736;30.568;2023-09-19T06:57:05;13.04;83.99
71128;SHT30;59249;59.736;30.568;2023-09-19T06:59:38;13.18;83.99
71128;SHT30;59249;59.736;30.568;2023-09-19T07:02:16;13.24;83.94
71128;SHT30;59249;59.736;30.568;2023-09-19T07:04:56;13.41;83.72
71128;SHT30;59249;59.736;30.568;2023-09-19T07:07:32;13.47;83.93
71128;SHT30;59249;59.736;30.568;2023-09-19T07:10:06;13.55;83.89
71128;SHT30;59249;59.736;30.568;2023-09-19T07:12:38;13.63;83.95
71128;SHT30;59249;59.736;30.568;2023-09-19T07:15:13;13.69;83.50
71128;SHT30;59249;59.736;30.568;2023-09-19T07:17:43;13.76;83.52
71128;SHT30;59249;59.736;30.568;2023-09-19T07:20:18;13.93;83.38
71128;SHT30;59249;59.736;30.568;2023-09-19T07:22:49;14.02;83.41
71128;SHT30;59249;59.736;30.568;2023-09-19T07:25:21;14.23;83.25
71128;SHT30;59249;59.736;30.568;2023-09-19T07:27:51;14.37;83.08
71128;SHT30;59249;59.736;30.568;2023-09-19T07:30:24;14.46;82.76
71128;SHT30;59249;59.736;30.568;2023-09-19T07:32:56;14.53;82.70
71128;SHT30;59249;59.736;30.568;2023-09-19T07:35:30;14.66;82.70
71128;SHT30;59249;59.736;30.568;2023-09-19T07:38:01;14.83;82.58
71128;SHT30;59249;59.736;30.568;2023-09-19T07:40:45;15.06;81.86
71128;SHT30;59249;59.736;30.568;2023-09-19T07:43:40;15.27;81.57
71128;SHT30;59249;59.736;30.568;2023-09-19T07:46:10;15.47;81.36
71128;SHT30;59249;59.736;30.568;2023-09-19T07:48:42;15.71;81.17
71128;SHT30;59249;59.736;30.568;2023-09-19T07:51:16;15.95;80.71
71128;SHT30;59249;59.736;30.568;2023-09-19T07:53:46;16.24;80.36
71128;SHT30;59249;59.736;30.568;2023-09-19T07:56:18;16.44;79.77
71128;SHT30;59249;59.736;30.568;2023-09-19T07:58:49;16.60;79.23
71128;SHT30;59249;59.736;30.568;2023-09-19T08:01:33;16.79;79.14
71128;SHT30;59249;59.736;30.568;2023-09-19T08:04:25;17.00;78.72
71128;SHT30;59249;59.736;30.568;2023-09-19T08:06:54;17.17;78.89
71128;SHT30;59249;59.736;30.568;2023-09-19T08:09:24;17.24;78.63
71128;SHT30;59249;59.736;30.568;2023-09-19T08:11:56;17.28;78.50
71128;SHT30;59249;59.736;30.568;2023-09-19T08:14:25;17.42;78.21
71128;SHT30;59249;59.736;30.568;2023-09-19T08:17:00;17.57;78.22
71128;SHT30;59249;59.736;30.568;2023-09-19T08:19:30;17.70;78.00
71128;SHT30;59249;59.736;30.568;2023-09-19T08:22:04;17.85;77.62
71128;SHT30;59249;59.736;30.568;2023-09-19T08:24:36;17.98;77.29
71128;SHT30;59249;59.736;30.568;2023-09-19T08:27:08;18.17;77.06
71128;SHT30;59249;59.736;30.568;2023-09-19T08:29:39;18.37;77.04
71128;SHT30;59249;59.736;30.568;2023-09-19T08:32:09;18.53;76.72
71128;SHT30;59249;59.736;30.568;2023-09-19T08:34:38;18.77;76.19
71128;SHT30;59249;59.736;30.568;2023-09-19T08:37:13;18.75;76.29
71128;SHT30;59249;59.736;30.568;2023-09-19T08:39:44;18.85;76.03
71128;SHT30;59249;59.736;30.568;2023-09-19T08:42:16;18.88;76.10
71128;SHT30;59249;59.736;30.568;2023-09-19T08:44:47;18.87;76.08
71128;SHT30;59249;59.736;30.568;2023-09-19T08:47:46;18.85;75.93
71128;SHT30;59249;59.736;30.568;2023-09-19T08:50:23;18.72;76.07
71128;SHT30;59249;59.736;30.568;2023-09-19T08:53:00;18.51;76.51
71128;SHT30;59249;59.736;30.568;2023-09-19T08:55:40;18.46;76.58
71128;SHT30;59249;59.736;30.568;2023-09-19T08:58:36;18.44;76.70
71128;SHT30;59249;59.736;30.568;2023-09-19T09:01:10;18.49;76.81
71128;SHT30;59249;59.736;30.568;2023-09-19T09:03:43;18.56;76.91
71128;SHT30;59249;59.736;30.568;2023-09-19T09:06:20;18.50;77.01
71128;SHT30;59249;59.736;30.568;2023-09-19T09:08:56;18.54;77.12
71128;SHT30;59249;59.736;30.568;2023-09-19T09:11:28;18.61;76.89
71128;SHT30;59249;59.736;30.568;2023-09-19T09:14:00;18.65;76.98
71128;SHT30;59249;59.736;30.568;2023-09-19T09:16:30;18.70;77.07
71128;SHT30;59249;59.736;30.568;2023-09-19T09:19:02;18.81;77.15
71128;SHT30;59249;59.736;30.568;2023-09-19T09:21:31;18.84;76.92
71128;SHT30;59249;59.736;30.568;2023-09-19T09:24:27;18.86;76.92
71128;SHT30;59249;59.736;30.568;2023-09-19T09:26:58;18.94;76.88
71128;SHT30;59249;59.736;30.568;2023-09-19T09:29:47;19.02;76.78
71128;SHT30;59249;59.736;30.568;2023-09-19T09:32:33;19.08;76.73
71128;SHT30;59249;59.736;30.568;2023-09-19T09:35:18;19.17;76.44
71128;SHT30;59249;59.736;30.568;2023-09-19T09:37:59;19.20;76.27
71128;SHT30;59249;59.736;30.568;2023-09-19T09:40:47;19.20;76.35
71128;SHT30;59249;59.736;30.568;2023-09-19T09:43:40;19.23;76.52
71128;SHT30;59249;59.736;30.568;2023-09-19T09:46:18;19.32;76.63
71128;SHT30;59249;59.736;30.568;2023-09-19T09:49:06;19.45;76.62
71128;SHT30;59249;59.736;30.568;2023-09-19T09:51:49;19.61;76.47
71128;SHT30;59249;59.736;30.568;2023-09-19T09:55:06;19.77;76.57
71128;SHT30;59249;59.736;30.568;2023-09-19T09:58:17;19.88;76.43
71128;SHT30;59249;59.736;30.568;2023-09-19T10:01:06;19.82;76.67
71128;SHT30;59249;59.736;30.568;2023-09-19T10:03:58;19.89;76.84
71128;SHT30;59249;59.736;30.568;2023-09-19T10:06:41;19.99;76.89
71128;SHT30;59249;59.736;30.568;2023-09-19T10:09:14;20.10;76.64
71128;SHT30;59249;59.736;30.568;2023-09-19T10:12:05;20.25;76.60
71128;SHT30;59249;59.736;30.568;2023-09-19T10:14:39;20.33;76.55
71128;SHT30;59249;59.736;30.568;2023-09-19T10:17:19;20.39;76.26
71128;SHT30;59249;59.736;30.568;2023-09-19T10:19:55;20.40;76.46
71128;SHT30;59249;59.736;30.568;2023-09-19T10:22:27;20.49;76.58
71128;SHT30;59249;59.736;30.568;2023-09-19T10:25:03;20.61;76.35
71128;SHT30;59249;59.736;30.568;2023-09-19T10:27:37;20.75;76.12
71128;SHT30;59249;59.736;30.568;2023-09-19T10:30:09;20.86;75.94
71128;SHT30;59249;59.736;30.568;2023-09-19T10:32:41;20.91;75.86
71128;SHT30;59249;59.736;30.568;2023-09-19T10:35:33;21.03;75.69
71128;SHT30;59249;59.736;30.568;2023-09-19T10:38:06;20.95;75.78
71128;SHT30;59249;59.736;30.568;2023-09-19T10:40:38;20.99;75.87
71128;SHT30;59249;59.736;30.568;2023-09-19T10:43:16;21.12;75.84
71128;SHT30;59249;59.736;30.568;2023-09-19T10:45:48;21.10;75.79
71128;SHT30;59249;59.736;30.568;2023-09-19T10:48:18;21.13;75.79
71128;SHT30;59249;59.736;30.568;2023-09-19T10:51:02;21.15;75.75
71128;SHT30;59249;59.736;30.568;2023-09-19T10:53:45;21.25;75.63
71128;SHT30;59249;59.736;30.568;2023-09-19T10:56:26;21.35;75.50
71128;SHT30;59249;59.736;30.568;2023-09-19T10:59:08;21.43;75.39
71128;SHT30;59249;59.736;30.568;2023-09-19T11:01:43;21.63;75.37
71128;SHT30;59249;59.736;30.568;2023-09-19T11:04:28;21.85;74.70
71128;SHT30;59249;59.736;30.568;2023-09-19T11:07:04;22.01;74.40
71128;SHT30;59249;59.736;30.568;2023-09-19T11:09:45;22.11;73.89
71128;SHT30;59249;59.736;30.568;2023-09-19T11:12:49;22.15;73.50
71128;SHT30;59249;59.736;30.568;2023-09-19T11:18:54;22.23;73.59
71128;SHT30;59249;59.736;30.568;2023-09-19T11:21:56;22.20;73.27
71128;SHT30;59249;59.736;30.568;2023-09-19T11:24:34;22.36;73.24
71128;SHT30;59249;59.736;30.568;2023-09-19T11:27:15;22.42;72.74
71128;SHT30;59249;59.736;30.568;2023-09-19T11:29:47;22.40;72.40
71128;SHT30;59249;59.736;30.568;2023-09-19T11:32:17;22.53;72.24
71128;SHT30;59249;59.736;30.568;2023-09-19T11:35:10;22.57;72.17
71128;SHT30;59249;59.736;30.568;2023-09-19T11:37:59;22.48;71.83
71128;SHT30;59249;59.736;30.568;2023-09-19T11:40:45;22.40;71.65
71128;SHT30;59249;59.736;30.568;2023-09-19T11:43:32;22.53;71.68
71128;SHT30;59249;59.736;30.568;2023-09-19T11:46:07;22.64;71.63
71128;SHT30;59249;59.736;30.568;2023-09-19T11:48:39;22.66;71.51
71128;SHT30;59249;59.736;30.568;2023-09-19T11:51:15;22.71;71.23
71128;SHT30;59249;59.736;30.568;2023-09-19T11:53:47;22.85;71.16
71128;SHT30;59249;59.736;30.568;2023-09-19T11:56:21;22.96;70.93
71128;SHT30;59249;59.736;30.568;2023-09-19T11:58:53;23.03;70.59
71128;SHT30;59249;59.736;30.568;2023-09-19T12:01:25;23.00;70.56
71128;SHT30;59249;59.736;30.568;2023-09-19T12:04:00;22.88;70.52
71128;SHT30;59249;59.736;30.568;2023-09-19T12:06:33;22.85;70.83
71128;SHT30;59249;59.736;30.568;2023-09-19T12:09:13;22.84;71.05
71128;SHT30;59249;59.736;30.568;2023-09-19T12:11:45;22.90;70.96
71128;SHT30;59249;59.736;30.568;2023-09-19T12:14:22;22.92;70.83
71128;SHT30;59249;59.736;30.568;2023-09-19T12:16:54;22.88;71.04
71128;SHT30;59249;59.736;30.568;2023-09-19T12:19:24;22.85;70.82
71128;SHT30;59249;59.736;30.568;2023-09-19T12:21:55;22.90;70.81
71128;SHT30;59249;59.736;30.568;2023-09-19T12:24:27;23.06;70.53
71128;SHT30;59249;59.736;30.568;2023-09-19T12:27:04;23.11;70.20
71128;SHT30;59249;59.736;30.568;2023-09-19T12:29:43;23.07;70.10
71128;SHT30;59249;59.736;30.568;2023-09-19T12:32:12;23.14;70.32
71128;SHT30;59249;59.736;30.568;2023-09-19T12:34:53;23.08;69.41
71128;SHT30;59249;59.736;30.568;2023-09-19T12:37:24;23.02;69.68
71128;SHT30;59249;59.736;30.568;2023-09-19T12:40:05;22.96;69.70
71128;SHT30;59249;59.736;30.568;2023-09-19T12:42:48;22.88;69.88
71128;SHT30;59249;59.736;30.568;2023-09-19T12:45:26;22.83;70.30
71128;SHT30;59249;59.736;30.568;2023-09-19T12:48:22;22.76;70.38
71128;SHT30;59249;59.736;30.568;2023-09-19T12:51:08;22.64;70.70
71128;SHT30;59249;59.736;30.568;2023-09-19T12:53:46;22.61;71.01
71128;SHT30;59249;59.736;30.568;2023-09-19T12:56:20;22.64;70.93
71128;SHT30;59249;59.736;30.568;2023-09-19T12:59:00;22.63;71.09
71128;SHT30;59249;59.736;30.568;2023-09-19T13:01:35;22.71;71.12
71128;SHT30;59249;59.736;30.568;2023-09-19T13:04:15;22.94;71.05
71128;SHT30;59249;59.736;30.568;2023-09-19T13:06:55;23.10;70.66
71128;SHT30;59249;59.736;30.568;2023-09-19T13:09:34;23.29;70.03
71128;SHT30;59249;59.736;30.568;2023-09-19T13:12:39;23.49;69.76
71128;SHT30;59249;59.736;30.568;2023-09-19T13:18:17;23.66;69.65
71128;SHT30;59249;59.736;30.568;2023-09-19T13:21:06;23.63;69.70
71128;SHT30;59249;59.736;30.568;2023-09-19T13:23:38;23.66;69.74
71128;SHT30;59249;59.736;30.568;2023-09-19T13:26:12;23.60;69.78
71128;SHT30;59249;59.736;30.568;2023-09-19T13:28:43;23.51;69.72
71128;SHT30;59249;59.736;30.568;2023-09-19T13:31:22;23.44;69.81
71128;SHT30;59249;59.736;30.568;2023-09-19T13:33:52;23.50;70.13
71128;SHT30;59249;59.736;30.568;2023-09-19T13:36:21;23.57;70.14
71128;SHT30;59249;59.736;30.568;2023-09-19T13:39:07;23.53;70.01
71128;SHT30;59249;59.736;30.568;2023-09-19T13:41:41;23.56;70.19
71128;SHT30;59249;59.736;30.568;2023-09-19T13:44:12;23.56;70.18
71128;SHT30;59249;59.736;30.568;2023-09-19T13:46:47;23.65;70.03
71128;SHT30;59249;59.736;30.568;2023-09-19T13:49:22;23.59;70.10
71128;SHT30;59249;59.736;30.568;2023-09-19T13:51:56;23.64;70.13
71128;SHT30;59249;59.736;30.568;2023-09-19T13:54:29;23.55;70.34
71128;SHT30;59249;59.736;30.568;2023-09-19T13:57:12;23.56;70.54
71128;SHT30;59249;59.736;30.568;2023-09-19T13:59:43;23.45;70.38
71128;SHT30;59249;59.736;30.568;2023-09-19T14:02:15;23.42;70.39
71128;SHT30;59249;59.736;30.568;2023-09-19T14:04:55;23.33;70.68
71128;SHT30;59249;59.736;30.568;2023-09-19T14:07:30;23.30;70.80
71128;SHT30;59249;59.736;30.568;2023-09-19T14:10:06;23.28;70.93
71128;SHT30;59249;59.736;30.568;2023-09-19T14:12:45;23.20;71.54
71128;SHT30;59249;59.736;30.568;2023-09-19T14:15:21;23.16;71.68
71128;SHT30;59249;59.736;30.568;2023-09-19T14:18:04;23.16;71.73
71128;SHT30;59249;59.736;30.568;2023-09-19T14:20:46;23.10;71.61
71128;SHT30;59249;59.736;30.568;2023-09-19T14:23:22;23.08;71.63
71128;SHT30;59249;59.736;30.568;2023-09-19T14:26:01;23.03;71.67
71128;SHT30;59249;59.736;30.568;2023-09-19T14:28:51;23.03;71.99
71128;SHT30;59249;59.736;30.568;2023-09-19T14:31:20;23.08;72.09
71128;SHT30;59249;59.736;30.568;2023-09-19T14:33:59;23.01;71.88
71128;SHT30;59249;59.736;30.568;2023-09-19T14:36:32;23.03;72.05
71128;SHT30;59249;59.736;30.568;2023-09-19T14:39:06;23.08;71.88
71128;SHT30;59249;59.736;30.568;2023-09-19T14:41:35;23.12;71.87
71128;SHT30;59249;59.736;30.568;2023-09-19T14:44:10;23.10;71.85
71128;SHT30;59249;59.736;30.568;2023-09-19T14:46:40;23.15;72.03
71128;SHT30;59249;59.736;30.568;2023-09-19T14:49:17;23.04;72.30
71128;SHT30;59249;59.736;30.568;2023-09-19T14:51:48;23.02;72.36
71128;SHT30;59249;59.736;30.568;2023-09-19T14:54:19;23.06;72.37
71128;SHT30;59249;59.736;30.568;2023-09-19T14:56:48;23.09;72.49
71128;SHT30;59249;59.736;30.568;2023-09-19T14:59:24;23.12;72.33
71128;SHT30;59249;59.736;30.568;2023-09-19T15:02:02;23.03;72.76
71128;SHT30;59249;59.736;30.568;2023-09-19T15:04:37;23.03;72.69
71128;SHT30;59249;59.736;30.568;2023-09-19T15:07:12;22.94;72.90
71128;SHT30;59249;59.736;30.568;2023-09-19T15:09:43;22.87;72.97
71128;SHT30;59249;59.736;30.568;2023-09-19T15:12:25;22.81;73.28
71128;SHT30;59249;59.736;30.568;2023-09-19T15:15:00;22.82;73.38
71128;SHT30;59249;59.736;30.568;2023-09-19T15:17:38;22.68;73.53
71128;SHT30;59249;59.736;30.568;2023-09-19T15:20:11;22.59;73.74
71128;SHT30;59249;59.736;30.568;2023-09-19T15:22:44;22.63;73.83
71128;SHT30;59249;59.736;30.568;2023-09-19T15:25:18;22.62;73.81
71128;SHT30;59249;59.736;30.568;2023-09-19T15:27:52;22.61;73.92
71128;SHT30;59249;59.736;30.568;2023-09-19T15:30:24;22.52;73.93
71128;SHT30;59249;59.736;30.568;2023-09-19T15:32:53;22.53;74.07
71128;SHT30;59249;59.736;30.568;2023-09-19T15:35:27;22.48;74.04
71128;SHT30;59249;59.736;30.568;2023-09-19T15:37:59;22.47;74.17
71128;SHT30;59249;59.736;30.568;2023-09-19T15:40:31;22.44;74.18
71128;SHT30;59249;59.736;30.568;2023-09-19T15:43:02;22.42;74.12
71128;SHT30;59249;59.736;30.568;2023-09-19T15:45:37;22.31;74.27
71128;SHT30;59249;59.736;30.568;2023-09-19T15:48:30;22.31;74.08
71128;SHT30;59249;59.736;30.568;2023-09-19T15:51:09;22.23;74.29
71128;SHT30;59249;59.736;30.568;2023-09-19T15:53:46;22.13;74.49
71128;SHT30;59249;59.736;30.568;2023-09-19T15:56:17;22.05;74.62
71128;SHT30;59249;59.736;30.568;2023-09-19T15:58:50;21.92;74.87
71128;SHT30;59249;59.736;30.568;2023-09-19T16:01:24;21.82;75.30
71128;SHT30;59249;59.736;30.568;2023-09-19T16:04:03;21.76;75.42
71128;SHT30;59249;59.736;30.568;2023-09-19T16:06:41;21.64;75.68
71128;SHT30;59249;59.736;30.568;2023-09-19T16:09:11;21.53;75.81
71128;SHT30;59249;59.736;30.568;2023-09-19T16:11:45;21.46;75.99
71128;SHT30;59249;59.736;30.568;2023-09-19T16:14:20;21.41;76.05
71128;SHT30;59249;59.736;30.568;2023-09-19T16:16:49;21.34;75.98